sensor_id;sensor_type;location;lat;lon;timestamp;pressure;altitude;pressure_sealevel;temperature;humidity
40994;BME280;26722;43.212;27.932;2023-03-31T00:00:25;55255.44;;;-146.72;47.94
40994;BME280;26722;43.212;27.932;2023-03-31T00:02:51;55259.66;;;-146.72;48.10
40994;BME280;26722;43.212;27.932;2023-03-31T00:05:18;55268.09;;;-146.72;48.42
40994;BME280;26722;43.212;27.932;2023-03-31T00:07:46;55232.22;;;-146.72;47.16
40994;BME280;26722;43.212;27.932;2023-03-31T00:10:13;55247.00;;;-146.72;46.81
40994;BME280;26722;43.212;27.932;2023-03-31T00:12:39;55257.56;;;-146.72;47.29
40994;BME280;26722;43.212;27.932;2023-03-31T00:15:05;55242.78;;;-146.72;47.23
40994;BME280;26722;43.212;27.932;2023-03-31T00:17:31;55247.00;;;-146.72;47.54
40994;BME280;26722;43.212;27.932;2023-03-31T00:19:58;55280.78;;;-146.72;47.10
40994;BME280;26722;43.212;27.932;2023-03-31T00:22:26;55266.00;;;-146.72;46.01
40994;BME280;26722;43.212;27.932;2023-03-31T00:24:54;55242.78;;;-146.72;45.43
40994;BME280;26722;43.212;27.932;2023-03-31T00:27:20;55242.78;;;-146.72;45.78
40994;BME280;26722;43.212;27.932;2023-03-31T00:29:45;55242.78;;;-146.72;46.25
40994;BME280;26722;43.212;27.932;2023-03-31T00:32:11;55234.31;;;-146.72;45.50
40994;BME280;26722;43.212;27.932;2023-03-31T00:34:38;55240.66;;;-146.72;45.58
40994;BME280;26722;43.212;27.932;2023-03-31T00:37:05;55234.31;;;-146.72;45.08
40994;BME280;26722;43.212;27.932;2023-03-31T00:39:30;55247.00;;;-146.72;45.41
40994;BME280;26722;43.212;27.932;2023-03-31T00:42:02;55247.00;;;-146.72;45.34
40994;BME280;26722;43.212;27.932;2023-03-31T00:44:29;55238.53;;;-146.72;45.01
40994;BME280;26722;43.212;27.932;2023-03-31T00:47:05;55234.31;;;-146.72;44.95
40994;BME280;26722;43.212;27.932;2023-03-31T00:52:40;55236.44;;;-146.72;45.49
40994;BME280;26722;43.212;27.932;2023-03-31T00:55:05;55240.66;;;-146.72;45.13
40994;BME280;26722;43.212;27.932;2023-03-31T00:57:34;55238.53;;;-146.72;44.93
40994;BME280;26722;43.212;27.932;2023-03-31T01:00:05;55236.44;;;-146.72;44.88
40994;BME280;26722;43.212;27.932;2023-03-31T01:02:44;55232.22;;;-146.72;45.15
40994;BME280;26722;43.212;27.932;2023-03-31T01:05:22;55234.31;;;-146.72;45.66
40994;BME280;26722;43.212;27.932;2023-03-31T01:07:49;55249.09;;;-146.72;45.56
40994;BME280;26722;43.212;27.932;2023-03-31T01:10:16;55234.31;;;-146.72;45.65
40994;BME280;26722;43.212;27.932;2023-03-31T01:12:45;55255.44;;;-146.72;45.36
40994;BME280;26722;43.212;27.932;2023-03-31T01:15:12;55242.78;;;-146.72;45.27
40994;BME280;26722;43.212;27.932;2023-03-31T01:17:38;55221.66;;;-146.72;46.03
40994;BME280;26722;43.212;27.932;2023-03-31T01:28:33;55247.00;;;-146.72;45.17
40994;BME280;26722;43.212;27.932;2023-03-31T01:48:05;55261.78;;;-146.72;46.26
40994;BME280;26722;43.212;27.932;2023-03-31T01:59:00;55244.88;;;-146.72;45.55
40994;BME280;26722;43.212;27.932;2023-03-31T02:04:18;55255.44;;;-146.72;45.76
40994;BME280;26722;43.212;27.932;2023-03-31T02:06:53;55247.00;;;-146.72;45.49
40994;BME280;26722;43.212;27.932;2023-03-31T02:09:26;55244.88;;;-146.72;45.38
40994;BME280;26722;43.212;27.932;2023-03-31T02:11:54;55236.44;;;-146.72;45.40
40994;BME280;26722;43.212;27.932;2023-03-31T02:14:24;55234.31;;;-146.72;45.43
40994;BME280;26722;43.212;27.932;2023-03-31T02:16:54;55257.56;;;-146.72;45.88
40994;BME280;26722;43.212;27.932;2023-03-31T02:19:30;55259.66;;;-146.72;45.71
40994;BME280;26722;43.212;27.932;2023-03-31T02:21:56;55259.66;;;-146.72;45.71
40994;BME280;26722;43.212;27.932;2023-03-31T02:24:25;55234.31;;;-146.72;46.41
40994;BME280;26722;43.212;27.932;2023-03-31T02:27:10;55247.00;;;-146.72;45.78
40994;BME280;26722;43.212;27.932;2023-03-31T02:29:37;55255.44;;;-146.72;45.43
40994;BME280;26722;43.212;27.932;2023-03-31T02:32:21;55240.66;;;-146.72;45.63
40994;BME280;26722;43.212;27.932;2023-03-31T02:34:47;55242.78;;;-146.72;46.37
40994;BME280;26722;43.212;27.932;2023-03-31T02:37:13;55238.53;;;-146.72;46.21
40994;BME280;26722;43.212;27.932;2023-03-31T02:39:40;55247.00;;;-146.72;46.96
40994;BME280;26722;43.212;27.932;2023-03-31T02:42:08;55255.44;;;-146.72;47.01
40994;BME280;26722;43.212;27.932;2023-03-31T02:44:37;55242.78;;;-146.72;46.53
40994;BME280;26722;43.212;27.932;2023-03-31T02:47:05;55238.53;;;-146.72;46.20
40994;BME280;26722;43.212;27.932;2023-03-31T02:49:32;55270.22;;;-146.72;46.42
40994;BME280;26722;43.212;27.932;2023-03-31T03:16:52;55255.44;;;-146.72;45.95
40994;BME280;26722;43.212;27.932;2023-03-31T03:19:21;55263.88;;;-146.72;45.64
40994;BME280;26722;43.212;27.932;2023-03-31T03:21:48;55259.66;;;-146.72;45.43
40994;BME280;26722;43.212;27.932;2023-03-31T03:24:17;55244.88;;;-146.72;45.58
40994;BME280;26722;43.212;27.932;2023-03-31T03:26:45;55257.56;;;-146.72;45.59
40994;BME280;26722;43.212;27.932;2023-03-31T03:29:12;55268.09;;;-146.72;45.92
40994;BME280;26722;43.212;27.932;2023-03-31T03:31:39;55255.44;;;-146.72;46.34
40994;BME280;26722;43.212;27.932;2023-03-31T03:34:05;55255.44;;;-146.72;46.29
40994;BME280;26722;43.212;27.932;2023-03-31T03:36:31;55266.00;;;-146.72;46.02
40994;BME280;26722;43.212;27.932;2023-03-31T03:38:57;55263.88;;;-146.72;46.00
40994;BME280;26722;43.212;27.932;2023-03-31T03:41:23;55263.88;;;-146.72;46.65
40994;BME280;26722;43.212;27.932;2023-03-31T03:43:48;55259.66;;;-146.72;46.18
40994;BME280;26722;43.212;27.932;2023-03-31T03:46:14;55242.78;;;-146.72;45.81
40994;BME280;26722;43.212;27.932;2023-03-31T03:48:39;55232.22;;;-146.72;46.06
40994;BME280;26722;43.212;27.932;2023-03-31T03:51:05;55255.44;;;-146.72;45.24
40994;BME280;26722;43.212;27.932;2023-03-31T03:53:31;55251.22;;;-146.72;44.87
40994;BME280;26722;43.212;27.932;2023-03-31T03:55:57;55266.00;;;-146.72;45.23
40994;BME280;26722;43.212;27.932;2023-03-31T03:58:23;55240.66;;;-146.72;45.28
40994;BME280;26722;43.212;27.932;2023-03-31T04:00:49;55259.66;;;-146.72;44.97
40994;BME280;26722;43.212;27.932;2023-03-31T04:03:15;55238.53;;;-146.72;45.17
40994;BME280;26722;43.212;27.932;2023-03-31T04:05:40;55251.22;;;-146.72;44.82
40994;BME280;26722;43.212;27.932;2023-03-31T04:08:06;55221.66;;;-146.72;44.75
40994;BME280;26722;43.212;27.932;2023-03-31T04:10:33;55230.09;;;-146.72;44.47
40994;BME280;26722;43.212;27.932;2023-03-31T04:12:59;55219.53;;;-146.72;44.51
40994;BME280;26722;43.212;27.932;2023-03-31T04:15:25;55230.09;;;-146.72;44.44
40994;BME280;26722;43.212;27.932;2023-03-31T04:17:50;55236.44;;;-146.72;44.05
40994;BME280;26722;43.212;27.932;2023-03-31T04:20:19;55242.78;;;-146.72;43.78
40994;BME280;26722;43.212;27.932;2023-03-31T04:22:45;55238.53;;;-146.72;43.63
40994;BME280;26722;43.212;27.932;2023-03-31T04:25:15;55221.66;;;-146.72;43.71
40994;BME280;26722;43.212;27.932;2023-03-31T04:27:46;55234.31;;;-146.72;43.15
40994;BME280;26722;43.212;27.932;2023-03-31T04:30:17;55211.09;;;-146.72;43.31
40994;BME280;26722;43.212;27.932;2023-03-31T04:32:54;55240.66;;;-146.72;43.63
40994;BME280;26722;43.212;27.932;2023-03-31T04:35:21;55213.22;;;-146.72;43.21
40994;BME280;26722;43.212;27.932;2023-03-31T04:37:49;55219.53;;;-146.72;43.06
40994;BME280;26722;43.212;27.932;2023-03-31T04:40:15;55230.09;;;-146.72;42.95
40994;BME280;26722;43.212;27.932;2023-03-31T04:42:42;55209.00;;;-146.72;43.41
40994;BME280;26722;43.212;27.932;2023-03-31T04:45:09;55230.09;;;-146.72;43.14
40994;BME280;26722;43.212;27.932;2023-03-31T04:47:35;55215.31;;;-146.72;42.97
40994;BME280;26722;43.212;27.932;2023-03-31T04:50:02;55192.09;;;-146.72;42.80
40994;BME280;26722;43.212;27.932;2023-03-31T04:52:27;55200.53;;;-146.72;42.54
40994;BME280;26722;43.212;27.932;2023-03-31T04:54:53;55223.78;;;-146.72;42.36
40994;BME280;26722;43.212;27.932;2023-03-31T04:57:18;55204.75;;;-146.72;42.72
40994;BME280;26722;43.212;27.932;2023-03-31T04:59:44;55181.53;;;-146.72;43.15
40994;BME280;26722;43.212;27.932;2023-03-31T05:02:10;55179.44;;;-146.72;41.84
40994;BME280;26722;43.212;27.932;2023-03-31T05:04:36;55190.00;;;-146.72;41.86
40994;BME280;26722;43.212;27.932;2023-03-31T05:07:02;55170.97;;;-146.72;41.94
40994;BME280;26722;43.212;27.932;2023-03-31T05:09:28;55185.75;;;-146.72;41.61
40994;BME280;26722;43.212;27.932;2023-03-31T05:11:53;55173.09;;;-146.72;41.24
40994;BME280;26722;43.212;27.932;2023-03-31T05:14:19;55166.75;;;-146.72;40.92
40994;BME280;26722;43.212;27.932;2023-03-31T05:16:45;55170.97;;;-146.72;41.22
40994;BME280;26722;43.212;27.932;2023-03-31T05:19:11;55158.31;;;-146.72;41.44
40994;BME280;26722;43.212;27.932;2023-03-31T05:21:36;55170.97;;;-146.72;41.64
40994;BME280;26722;43.212;27.932;2023-03-31T05:24:02;55149.88;;;-146.72;41.70
40994;BME280;26722;43.212;27.932;2023-03-31T05:26:29;55168.88;;;-146.72;41.14
40994;BME280;26722;43.212;27.932;2023-03-31T05:28:55;55154.09;;;-146.72;40.94
40994;BME280;26722;43.212;27.932;2023-03-31T05:31:20;55168.88;;;-146.72;40.42
40994;BME280;26722;43.212;27.932;2023-03-31T05:33:46;55120.31;;;-146.72;40.17
40994;BME280;26722;43.212;27.932;2023-03-31T05:36:14;55158.31;;;-146.72;40.49
40994;BME280;26722;43.212;27.932;2023-03-31T05:38:41;55132.97;;;-146.72;40.20
40994;BME280;26722;43.212;27.932;2023-03-31T05:41:07;55137.22;;;-146.72;40.52
40994;BME280;26722;43.212;27.932;2023-03-31T05:43:34;55137.22;;;-146.72;39.86
40994;BME280;26722;43.212;27.932;2023-03-31T05:46:00;55126.66;;;-146.72;40.13
40994;BME280;26722;43.212;27.932;2023-03-31T05:48:26;55149.88;;;-146.72;40.03
40994;BME280;26722;43.212;27.932;2023-03-31T05:50:56;55124.53;;;-146.72;40.10
40994;BME280;26722;43.212;27.932;2023-03-31T05:53:22;55128.75;;;-146.72;39.81
40994;BME280;26722;43.212;27.932;2023-03-31T05:55:47;55141.44;;;-146.72;39.78
40994;BME280;26722;43.212;27.932;2023-03-31T05:58:13;55145.66;;;-146.72;39.79
40994;BME280;26722;43.212;27.932;2023-03-31T06:00:38;55132.97;;;-146.72;39.04
40994;BME280;26722;43.212;27.932;2023-03-31T06:03:04;55135.09;;;-146.72;38.83
40994;BME280;26722;43.212;27.932;2023-03-31T06:05:32;55124.53;;;-146.72;38.99
40994;BME280;26722;43.212;27.932;2023-03-31T06:07:59;55118.19;;;-146.72;38.36
40994;BME280;26722;43.212;27.932;2023-03-31T06:10:24;55130.88;;;-146.72;39.03
40994;BME280;26722;43.212;27.932;2023-03-31T06:12:50;55116.09;;;-146.72;38.39
40994;BME280;26722;43.212;27.932;2023-03-31T06:15:16;55109.75;;;-146.72;38.47
40994;BME280;26722;43.212;27.932;2023-03-31T06:17:41;55101.31;;;-146.72;38.34
40994;BME280;26722;43.212;27.932;2023-03-31T06:20:07;55118.19;;;-146.72;38.16
40994;BME280;26722;43.212;27.932;2023-03-31T06:22:33;55145.66;;;-146.72;37.88
40994;BME280;26722;43.212;27.932;2023-03-31T06:24:58;55137.22;;;-146.72;37.54
40994;BME280;26722;43.212;27.932;2023-03-31T06:27:24;55124.53;;;-146.72;37.50
40994;BME280;26722;43.212;27.932;2023-03-31T06:29:49;55173.09;;;-146.72;37.01
40994;BME280;26722;43.212;27.932;2023-03-31T06:32:15;55126.66;;;-146.72;37.35
40994;BME280;26722;43.212;27.932;2023-03-31T06:34:41;55145.66;;;-146.72;37.53
40994;BME280;26722;43.212;27.932;2023-03-31T06:37:06;55139.31;;;-146.72;37.66
40994;BME280;26722;43.212;27.932;2023-03-31T06:39:32;55139.31;;;-146.72;37.62
40994;BME280;26722;43.212;27.932;2023-03-31T06:41:57;55126.66;;;-146.72;37.65
40994;BME280;26722;43.212;27.932;2023-03-31T06:44:23;55151.97;;;-146.72;38.22
40994;BME280;26722;43.212;27.932;2023-03-31T06:46:49;55149.88;;;-146.72;38.43
40994;BME280;26722;43.212;27.932;2023-03-31T06:49:14;55118.19;;;-146.72;38.30
40994;BME280;26722;43.212;27.932;2023-03-31T06:51:40;55149.88;;;-146.72;38.41
40994;BME280;26722;43.212;27.932;2023-03-31T06:54:06;55137.22;;;-146.72;38.49
40994;BME280;26722;43.212;27.932;2023-03-31T06:56:31;55151.97;;;-146.72;38.91
40994;BME280;26722;43.212;27.932;2023-03-31T06:58:56;55132.97;;;-146.72;38.92
40994;BME280;26722;43.212;27.932;2023-03-31T07:01:22;55154.09;;;-146.72;39.38
40994;BME280;26722;43.212;27.932;2023-03-31T07:03:47;55158.31;;;-146.72;39.33
40994;BME280;26722;43.212;27.932;2023-03-31T07:06:13;55154.09;;;-146.72;39.54
40994;BME280;26722;43.212;27.932;2023-03-31T07:08:39;55139.31;;;-146.72;39.31
40994;BME280;26722;43.212;27.932;2023-03-31T07:11:04;55151.97;;;-146.72;39.72
40994;BME280;26722;43.212;27.932;2023-03-31T07:13:30;55149.88;;;-146.72;40.33
40994;BME280;26722;43.212;27.932;2023-03-31T07:15:56;55158.31;;;-146.72;40.13
40994;BME280;26722;43.212;27.932;2023-03-31T07:18:22;55137.22;;;-146.72;40.42
40994;BME280;26722;43.212;27.932;2023-03-31T07:20:50;55124.53;;;-146.72;40.55
40994;BME280;26722;43.212;27.932;2023-03-31T07:23:17;55124.53;;;-146.72;40.17
40994;BME280;26722;43.212;27.932;2023-03-31T07:25:43;55139.31;;;-146.72;39.67
40994;BME280;26722;43.212;27.932;2023-03-31T07:28:10;55162.53;;;-146.72;39.66
40994;BME280;26722;43.212;27.932;2023-03-31T07:30:35;55158.31;;;-146.72;40.17
40994;BME280;26722;43.212;27.932;2023-03-31T07:33:01;55168.88;;;-146.72;40.36
40994;BME280;26722;43.212;27.932;2023-03-31T07:35:27;55122.44;;;-146.72;40.26
40994;BME280;26722;43.212;27.932;2023-03-31T07:37:53;55160.44;;;-146.72;40.47
40994;BME280;26722;43.212;27.932;2023-03-31T07:40:21;55135.09;;;-146.72;40.18
40994;BME280;26722;43.212;27.932;2023-03-31T07:42:48;55124.53;;;-146.72;40.89
40994;BME280;26722;43.212;27.932;2023-03-31T07:45:15;55154.09;;;-146.72;41.04
40994;BME280;26722;43.212;27.932;2023-03-31T07:47:41;55160.44;;;-146.72;41.51
40994;BME280;26722;43.212;27.932;2023-03-31T07:50:08;55149.88;;;-146.72;41.24
40994;BME280;26722;43.212;27.932;2023-03-31T07:52:33;55162.53;;;-146.72;41.39
40994;BME280;26722;43.212;27.932;2023-03-31T07:54:59;55145.66;;;-146.72;41.29
40994;BME280;26722;43.212;27.932;2023-03-31T07:57:25;55151.97;;;-146.72;41.29
40994;BME280;26722;43.212;27.932;2023-03-31T07:59:50;55124.53;;;-146.72;40.96
40994;BME280;26722;43.212;27.932;2023-03-31T08:02:16;55154.09;;;-146.72;40.91
40994;BME280;26722;43.212;27.932;2023-03-31T08:04:43;55141.44;;;-146.72;41.46
40994;BME280;26722;43.212;27.932;2023-03-31T08:07:14;55141.44;;;-146.72;41.50
40994;BME280;26722;43.212;27.932;2023-03-31T08:09:42;55160.44;;;-146.72;41.24
40994;BME280;26722;43.212;27.932;2023-03-31T08:12:08;55158.31;;;-146.72;40.42
40994;BME280;26722;43.212;27.932;2023-03-31T08:14:34;55154.09;;;-146.72;40.08
40994;BME280;26722;43.212;27.932;2023-03-31T08:17:00;55128.75;;;-146.72;39.83
40994;BME280;26722;43.212;27.932;2023-03-31T08:19:26;55128.75;;;-146.72;40.08
40994;BME280;26722;43.212;27.932;2023-03-31T08:21:52;55137.22;;;-146.72;40.46
40994;BME280;26722;43.212;27.932;2023-03-31T08:24:19;55147.75;;;-146.72;41.14
40994;BME280;26722;43.212;27.932;2023-03-31T08:26:45;55158.31;;;-146.72;41.45
40994;BME280;26722;43.212;27.932;2023-03-31T08:29:10;55179.44;;;-146.72;42.46
40994;BME280;26722;43.212;27.932;2023-03-31T08:31:36;55177.31;;;-146.72;43.06
40994;BME280;26722;43.212;27.932;2023-03-31T08:34:01;55162.53;;;-146.72;44.05
40994;BME280;26722;43.212;27.932;2023-03-31T08:36:27;55183.66;;;-146.72;45.43
40994;BME280;26722;43.212;27.932;2023-03-31T08:38:54;55177.31;;;-146.72;46.42
40994;BME280;26722;43.212;27.932;2023-03-31T08:41:41;55166.75;;;-146.72;47.31
40994;BME280;26722;43.212;27.932;2023-03-31T08:44:14;55168.88;;;-146.72;49.78
40994;BME280;26722;43.212;27.932;2023-03-31T08:46:42;55175.22;;;-146.72;50.80
40994;BME280;26722;43.212;27.932;2023-03-31T08:49:13;55183.66;;;-146.72;51.68
40994;BME280;26722;43.212;27.932;2023-03-31T08:51:45;55179.44;;;-146.72;52.94
40994;BME280;26722;43.212;27.932;2023-03-31T08:54:33;55187.88;;;-146.72;53.96
40994;BME280;26722;43.212;27.932;2023-03-31T08:57:05;55194.22;;;-146.72;55.21
40994;BME280;26722;43.212;27.932;2023-03-31T08:59:35;55187.88;;;-146.72;56.38
40994;BME280;26722;43.212;27.932;2023-03-31T09:07:47;55175.22;;;-146.72;59.07
40994;BME280;26722;43.212;27.932;2023-03-31T09:10:29;55200.53;;;-146.72;59.03
40994;BME280;26722;43.212;27.932;2023-03-31T09:18:30;55160.44;;;-146.72;62.17
40994;BME280;26722;43.212;27.932;2023-03-31T09:24:20;55160.44;;;-146.72;62.34
40994;BME280;26722;43.212;27.932;2023-03-31T09:26:51;55141.44;;;-146.72;62.34
40994;BME280;26722;43.212;27.932;2023-03-31T09:29:32;55154.09;;;-146.72;62.19
40994;BME280;26722;43.212;27.932;2023-03-31T09:32:07;55158.31;;;-146.72;63.39
40994;BME280;26722;43.212;27.932;2023-03-31T09:34:38;55156.22;;;-146.72;64.29
40994;BME280;26722;43.212;27.932;2023-03-31T09:37:03;55166.75;;;-146.72;64.70
40994;BME280;26722;43.212;27.932;2023-03-31T09:39:29;55160.44;;;-146.72;64.60
40994;BME280;26722;43.212;27.932;2023-03-31T09:41:55;55187.88;;;-146.72;65.03
40994;BME280;26722;43.212;27.932;2023-03-31T09:44:27;55164.66;;;-146.72;66.04
40994;BME280;26722;43.212;27.932;2023-03-31T09:46:58;55166.75;;;-146.72;65.27
40994;BME280;26722;43.212;27.932;2023-03-31T09:49:27;55175.22;;;-146.72;66.00
40994;BME280;26722;43.212;27.932;2023-03-31T09:52:29;55156.22;;;-146.72;65.14
40994;BME280;26722;43.212;27.932;2023-03-31T09:54:58;55156.22;;;-146.72;63.99
40994;BME280;26722;43.212;27.932;2023-03-31T09:57:32;55175.22;;;-146.72;64.42
40994;BME280;26722;43.212;27.932;2023-03-31T10:00:13;55183.66;;;-146.72;64.62
40994;BME280;26722;43.212;27.932;2023-03-31T10:02:50;55158.31;;;-146.72;64.81
40994;BME280;26722;43.212;27.932;2023-03-31T10:05:32;55175.22;;;-146.72;65.50
40994;BME280;26722;43.212;27.932;2023-03-31T10:10:36;55149.88;;;-146.72;66.50
40994;BME280;26722;43.212;27.932;2023-03-31T10:13:07;55168.88;;;-146.72;66.69
40994;BME280;26722;43.212;27.932;2023-03-31T10:15:36;55162.53;;;-146.72;66.87
40994;BME280;26722;43.212;27.932;2023-03-31T10:18:03;55179.44;;;-146.72;66.24
40994;BME280;26722;43.212;27.932;2023-03-31T10:20:36;55175.22;;;-146.72;66.93
40994;BME280;26722;43.212;27.932;2023-03-31T10:23:16;55166.75;;;-146.72;67.23
40994;BME280;26722;43.212;27.932;2023-03-31T10:25:44;55170.97;;;-146.72;67.54
40994;BME280;26722;43.212;27.932;2023-03-31T10:28:14;55166.75;;;-146.72;68.80
40994;BME280;26722;43.212;27.932;2023-03-31T10:30:47;55187.88;;;-146.72;68.87
40994;BME280;26722;43.212;27.932;2023-03-31T10:33:17;55179.44;;;-146.72;68.16
40994;BME280;26722;43.212;27.932;2023-03-31T10:35:43;55170.97;;;-146.72;67.41
40994;BME280;26722;43.212;27.932;2023-03-31T10:38:18;55166.75;;;-146.72;68.45
40994;BME280;26722;43.212;27.932;2023-03-31T10:40:54;55173.09;;;-146.72;68.59
40994;BME280;26722;43.212;27.932;2023-03-31T10:43:25;55162.53;;;-146.72;67.38
40994;BME280;26722;43.212;27.932;2023-03-31T10:45:56;55154.09;;;-146.72;67.49
40994;BME280;26722;43.212;27.932;2023-03-31T10:48:35;55132.97;;;-146.72;66.08
40994;BME280;26722;43.212;27.932;2023-03-31T10:53:48;55118.19;;;-146.72;65.46
40994;BME280;26722;43.212;27.932;2023-03-31T10:56:45;55130.88;;;-146.72;65.51
40994;BME280;26722;43.212;27.932;2023-03-31T11:04:53;55107.66;;;-146.72;62.75
40994;BME280;26722;43.212;27.932;2023-03-31T11:08:03;55116.09;;;-146.72;60.86
40994;BME280;26722;43.212;27.932;2023-03-31T11:13:40;55116.09;;;-146.72;60.63
40994;BME280;26722;43.212;27.932;2023-03-31T11:16:14;55099.19;;;-146.72;60.76
40994;BME280;26722;43.212;27.932;2023-03-31T11:21:26;55111.88;;;-146.72;59.04
40994;BME280;26722;43.212;27.932;2023-03-31T11:26:53;55084.44;;;-146.72;58.60
40994;BME280;26722;43.212;27.932;2023-03-31T11:40:44;55061.19;;;-146.72;56.60
40994;BME280;26722;43.212;27.932;2023-03-31T11:45:52;55056.97;;;-146.72;56.33
40994;BME280;26722;43.212;27.932;2023-03-31T11:48:40;55071.75;;;-146.72;56.29
40994;BME280;26722;43.212;27.932;2023-03-31T11:51:20;55065.41;;;-146.72;56.39
40994;BME280;26722;43.212;27.932;2023-03-31T11:53:50;55075.97;;;-146.72;55.96
40994;BME280;26722;43.212;27.932;2023-03-31T11:56:17;55056.97;;;-146.72;55.76
40994;BME280;26722;43.212;27.932;2023-03-31T11:58:47;55056.97;;;-146.72;53.94
40994;BME280;26722;43.212;27.932;2023-03-31T12:01:56;55065.41;;;-146.72;53.44
40994;BME280;26722;43.212;27.932;2023-03-31T12:04:40;55048.53;;;-146.72;52.33
40994;BME280;26722;43.212;27.932;2023-03-31T12:12:50;55035.88;;;-146.72;52.80
40994;BME280;26722;43.212;27.932;2023-03-31T12:15:24;55029.53;;;-146.72;52.45
40994;BME280;26722;43.212;27.932;2023-03-31T12:18:19;55031.66;;;-146.72;51.04
40994;BME280;26722;43.212;27.932;2023-03-31T12:20:55;55042.19;;;-146.72;50.71
40994;BME280;26722;43.212;27.932;2023-03-31T12:23:26;55031.66;;;-146.72;50.55
40994;BME280;26722;43.212;27.932;2023-03-31T12:28:40;55040.09;;;-146.72;50.25
40994;BME280;26722;43.212;27.932;2023-03-31T12:31:12;55052.75;;;-146.72;51.01
40994;BME280;26722;43.212;27.932;2023-03-31T12:33:46;55056.97;;;-146.72;51.64
40994;BME280;26722;43.212;27.932;2023-03-31T12:39:23;55078.09;;;-146.72;54.04
40994;BME280;26722;43.212;27.932;2023-03-31T12:45:00;55054.88;;;-146.72;55.87
40994;BME280;26722;43.212;27.932;2023-03-31T12:50:18;55067.53;;;-146.72;56.51
40994;BME280;26722;43.212;27.932;2023-03-31T12:55:56;55065.41;;;-146.72;57.52
40994;BME280;26722;43.212;27.932;2023-03-31T13:01:17;55082.31;;;-146.72;58.25
40994;BME280;26722;43.212;27.932;2023-03-31T13:09:05;55069.66;;;-146.72;58.89
40994;BME280;26722;43.212;27.932;2023-03-31T13:11:43;55067.53;;;-146.72;58.65
40994;BME280;26722;43.212;27.932;2023-03-31T13:14:36;55073.88;;;-146.72;57.80
40994;BME280;26722;43.212;27.932;2023-03-31T13:17:25;55073.88;;;-146.72;57.94
40994;BME280;26722;43.212;27.932;2023-03-31T13:19:52;55059.09;;;-146.72;57.72
40994;BME280;26722;43.212;27.932;2023-03-31T13:22:34;55065.41;;;-146.72;57.45
40994;BME280;26722;43.212;27.932;2023-03-31T13:27:53;55048.53;;;-146.72;56.89
40994;BME280;26722;43.212;27.932;2023-03-31T13:33:11;55061.19;;;-146.72;57.08
40994;BME280;26722;43.212;27.932;2023-03-31T13:35:39;55033.75;;;-146.72;57.37
40994;BME280;26722;43.212;27.932;2023-03-31T13:38:51;55044.31;;;-146.72;57.49
40994;BME280;26722;43.212;27.932;2023-03-31T13:41:41;55052.75;;;-146.72;57.18
40994;BME280;26722;43.212;27.932;2023-03-31T13:47:23;55042.19;;;-146.72;56.81
40994;BME280;26722;43.212;27.932;2023-03-31T13:53:18;55040.09;;;-146.72;56.52
40994;BME280;26722;43.212;27.932;2023-03-31T13:55:55;55050.66;;;-146.72;56.06
40994;BME280;26722;43.212;27.932;2023-03-31T14:04:05;55044.31;;;-146.72;55.40
40994;BME280;26722;43.212;27.932;2023-03-31T14:06:51;55018.97;;;-146.72;56.16
40994;BME280;26722;43.212;27.932;2023-03-31T14:09:30;55044.31;;;-146.72;56.15
40994;BME280;26722;43.212;27.932;2023-03-31T14:12:00;55010.53;;;-146.72;55.51
40994;BME280;26722;43.212;27.932;2023-03-31T14:14:26;55014.75;;;-146.72;55.83
40994;BME280;26722;43.212;27.932;2023-03-31T14:16:59;55018.97;;;-146.72;54.99
40994;BME280;26722;43.212;27.932;2023-03-31T14:25:10;55014.75;;;-146.72;54.26
40994;BME280;26722;43.212;27.932;2023-03-31T14:33:19;55027.41;;;-146.72;53.71
40994;BME280;26722;43.212;27.932;2023-03-31T14:38:27;55010.53;;;-146.72;53.82
40994;BME280;26722;43.212;27.932;2023-03-31T14:40:54;55016.88;;;-146.72;54.43
40994;BME280;26722;43.212;27.932;2023-03-31T14:43:46;55025.31;;;-146.72;54.79
40994;BME280;26722;43.212;27.932;2023-03-31T14:46:18;55010.53;;;-146.72;54.90
40994;BME280;26722;43.212;27.932;2023-03-31T14:48:46;55006.31;;;-146.72;54.75
40994;BME280;26722;43.212;27.932;2023-03-31T14:51:25;55033.75;;;-146.72;54.37
40994;BME280;26722;43.212;27.932;2023-03-31T14:53:58;55025.31;;;-146.72;55.17
40994;BME280;26722;43.212;27.932;2023-03-31T14:56:30;55046.41;;;-146.72;55.42
40994;BME280;26722;43.212;27.932;2023-03-31T14:58:59;55018.97;;;-146.72;55.72
40994;BME280;26722;43.212;27.932;2023-03-31T15:01:28;55040.09;;;-146.72;55.64
40994;BME280;26722;43.212;27.932;2023-03-31T15:03:59;55027.41;;;-146.72;56.29
40994;BME280;26722;43.212;27.932;2023-03-31T15:06:25;55052.75;;;-146.72;56.57
40994;BME280;26722;43.212;27.932;2023-03-31T15:08:55;55012.63;;;-146.72;56.49
40994;BME280;26722;43.212;27.932;2023-03-31T15:11:21;55059.09;;;-146.72;56.21
40994;BME280;26722;43.212;27.932;2023-03-31T15:13:50;55052.75;;;-146.72;55.92
40994;BME280;26722;43.212;27.932;2023-03-31T15:16:29;55027.41;;;-146.72;56.32
40994;BME280;26722;43.212;27.932;2023-03-31T15:18:58;55059.09;;;-146.72;55.77
40994;BME280;26722;43.212;27.932;2023-03-31T15:21:26;55052.75;;;-146.72;56.21
40994;BME280;26722;43.212;27.932;2023-03-31T15:23:54;55052.75;;;-146.72;56.46
40994;BME280;26722;43.212;27.932;2023-03-31T15:26:45;55035.88;;;-146.72;56.51
40994;BME280;26722;43.212;27.932;2023-03-31T15:29:19;55069.66;;;-146.72;56.57
40994;BME280;26722;43.212;27.932;2023-03-31T15:31:46;55027.41;;;-146.72;56.20
40994;BME280;26722;43.212;27.932;2023-03-31T15:34:21;55056.97;;;-146.72;56.15
40994;BME280;26722;43.212;27.932;2023-03-31T15:36:53;55042.19;;;-146.72;55.87